Time;durP1;ratioP1;P1;durP2;ratioP2;P2;SDS_P1;SDS_P2;PMS_P1;PMS_P2;Temp;Humidity;BMP_temperature;BMP_pressure;BME280_temperature;BME280_humidity;BME280_pressure;Samples;Min_cycle;Max_cycle;Signal;HPM_P1;HPM_P2
2021/07/04 00:00:18;;;;;;;8.02;5.32;;;15.90;99.90;;;16.12;100.00;100128.63;3511610;39;102457;-84
2021/07/04 00:02:45;;;;;;;4.97;4.05;;;15.90;99.90;;;16.11;100.00;100120.72;3522668;39;100205;-82
2021/07/04 00:05:18;;;;;;;6.03;4.75;;;15.90;99.90;;;16.07;100.00;100122.97;3522296;39;101216;-81
2021/07/04 00:07:45;;;;;;;7.95;5.15;;;15.80;99.90;;;16.03;100.00;100124.41;3520652;39;101681;-83
2021/07/04 00:10:17;;;;;;;4.60;4.18;;;15.90;99.90;;;15.92;100.00;100116.03;3537964;39;100591;-83
2021/07/04 00:12:44;;;;;;;5.80;5.20;;;15.90;99.90;;;15.85;100.00;100118.66;3535308;39;99667;-81
2021/07/04 00:15:18;;;;;;;5.40;4.53;;;15.90;99.90;;;15.87;100.00;100119.31;3522879;39;101058;-82
2021/07/04 00:17:45;;;;;;;5.40;4.05;;;15.90;99.90;;;15.93;100.00;100118.53;3512301;39;103141;-83
2021/07/04 00:20:16;;;;;;;5.10;4.20;;;17.00;99.90;;;15.95;100.00;100115.63;3523445;39;100111;-82
2021/07/04 00:22:45;;;;;;;6.55;4.70;;;15.90;99.90;;;15.97;100.00;100111.69;3511950;39;100092;-82
2021/07/04 00:25:16;;;;;;;4.85;4.10;;;16.00;99.90;;;15.98;100.00;100105.25;3521530;39;101339;-84
2021/07/04 00:27:44;;;;;;;4.70;4.03;;;15.90;99.90;;;15.99;100.00;100101.53;3513340;39;103184;-83
2021/07/04 00:30:16;;;;;;;6.25;4.68;;;17.10;99.90;;;16.08;100.00;100103.03;3522089;39;100729;-81
2021/07/04 00:32:43;;;;;;;5.57;4.20;;;16.00;99.90;;;16.08;100.00;100113.84;3510357;39;100042;-80
2021/07/04 00:35:15;;;;;;;8.93;4.53;;;16.00;99.90;;;16.07;100.00;100114.06;3512735;39;101614;-82
2021/07/04 00:37:43;;;;;;;6.53;4.47;;;16.10;99.90;;;15.92;100.00;100116.88;3511722;39;103690;-81
2021/07/04 00:40:12;;;;;;;5.22;4.05;;;17.30;99.90;;;15.83;100.00;100109.91;3520531;39;100840;-83
2021/07/04 00:42:41;;;;;;;4.45;3.88;;;16.10;99.90;;;15.94;100.00;100106.72;3511358;39;100618;-81
2021/07/04 00:45:12;;;;;;;6.70;4.03;;;16.10;99.90;;;15.87;100.00;100102.28;3511474;39;103472;-81
2021/07/04 00:47:42;;;;;;;6.47;4.40;;;16.00;99.90;;;16.02;100.00;100101.16;3525196;39;102991;-84
2021/07/04 00:50:12;;;;;;;5.68;4.50;;;16.10;99.90;;;16.04;100.00;100106.34;3527455;39;101373;-83
2021/07/04 00:52:41;;;;;;;5.85;4.97;;;16.10;99.90;;;15.91;100.00;100107.09;3521942;39;100242;-84
2021/07/04 00:55:12;;;;;;;6.47;5.03;;;16.10;99.90;;;15.90;100.00;100093.81;3511641;39;103744;-82
2021/07/04 00:57:42;;;;;;;6.00;4.30;;;16.10;99.90;;;15.94;100.00;100100.47;3510862;39;102833;-83
2021/07/04 01:00:13;;;;;;;5.55;4.20;;;15.60;99.90;;;15.95;100.00;100097.56;3499810;39;102128;-81
2021/07/04 01:02:44;;;;;;;5.88;4.55;;;16.10;99.90;;;15.94;100.00;100104.00;3459936;39;100033;-82
2021/07/04 01:05:16;;;;;;;4.68;3.97;;;16.10;99.90;;;15.95;100.00;100096.75;3492618;40;102771;-83
2021/07/04 01:07:45;;;;;;;6.45;5.13;;;16.10;99.90;;;15.99;100.00;100098.84;3462564;40;101445;-82
2021/07/04 01:10:17;;;;;;;5.13;4.45;;;16.10;99.90;;;16.02;100.00;100097.63;3492356;40;102851;-82
2021/07/04 01:12:48;;;;;;;5.97;4.95;;;16.00;99.90;;;16.04;100.00;100090.16;3493597;40;100055;-82
2021/07/04 01:15:18;;;;;;;5.38;4.40;;;16.00;99.90;;;16.04;100.00;100087.47;3490830;40;102854;-82
2021/07/04 01:17:48;;;;;;;5.55;4.28;;;16.10;99.90;;;16.08;100.00;100084.16;3459951;40;101243;-83
2021/07/04 01:20:19;;;;;;;9.20;4.43;;;16.00;99.90;;;16.15;100.00;100090.44;3459910;40;100450;-83
2021/07/04 01:22:59;;;;;;;5.78;4.53;;;16.00;99.90;;;16.14;100.00;100079.84;3493261;40;100153;-81
2021/07/04 01:25:28;;;;;;;9.80;4.68;;;16.00;99.90;;;16.21;100.00;100085.25;3492190;40;103597;-82
2021/07/04 01:27:57;;;;;;;4.38;3.97;;;15.00;99.90;;;16.25;100.00;100086.53;3460292;40;101344;-84
2021/07/04 01:30:25;;;;;;;6.22;4.35;;;16.00;99.90;;;16.32;100.00;100072.03;3461586;40;100540;-82
2021/07/04 01:32:53;;;;;;;6.72;4.72;;;15.90;99.90;;;16.28;100.00;100075.34;3500656;40;101043;-84
2021/07/04 01:35:21;;;;;;;8.65;4.35;;;16.00;99.90;;;16.30;100.00;100086.78;3495608;40;101935;-83
2021/07/04 01:37:49;;;;;;;4.10;3.67;;;16.00;99.90;;;16.25;100.00;100079.28;3493920;40;103229;-82
2021/07/04 01:40:19;;;;;;;5.90;4.55;;;16.00;99.90;;;16.22;100.00;100081.53;3495104;40;102211;-84
2021/07/04 01:42:47;;;;;;;10.32;4.88;;;16.00;99.90;;;16.14;100.00;100083.38;3461507;40;100133;-83
2021/07/04 01:45:20;;;;;;;7.60;4.30;;;16.00;99.90;;;16.17;100.00;100095.63;3493136;40;102021;-84
2021/07/04 01:47:50;;;;;;;8.20;5.47;;;16.00;99.90;;;16.02;100.00;100087.66;3494230;40;102393;-82
2021/07/04 01:50:20;;;;;;;6.80;4.90;;;17.00;99.90;;;15.93;100.00;100096.94;3493963;40;102395;-83
2021/07/04 01:52:47;;;;;;;6.70;4.75;;;16.10;99.90;;;15.90;100.00;100104.59;3493927;40;100553;-82
2021/07/04 01:55:19;;;;;;;7.13;5.45;;;15.80;99.90;;;15.82;100.00;100109.09;3502096;39;102588;-83
2021/07/04 01:57:48;;;;;;;4.55;3.97;;;15.80;99.90;;;15.87;100.00;100107.69;3495101;39;102810;-83
2021/07/04 02:00:25;;;;;;;6.63;5.20;;;15.80;99.90;;;15.76;100.00;100107.19;3511986;39;102371;-82
2021/07/04 02:03:09;;;;;;;4.80;4.30;;;15.70;99.90;;;15.78;100.00;100107.00;3513015;39;100008;-83
2021/07/04 02:05:45;;;;;;;5.38;4.22;;;16.20;99.90;;;15.77;100.00;100110.72;3518067;39;100567;-81
2021/07/04 02:08:15;;;;;;;7.90;4.85;;;15.60;99.90;;;15.71;100.00;100115.03;3522712;39;102429;-83
2021/07/04 02:10:48;;;;;;;5.88;4.32;;;15.80;99.90;;;15.69;100.00;100113.56;3513441;39;102290;-84
2021/07/04 02:13:16;;;;;;;6.55;4.70;;;16.00;99.90;;;15.69;100.00;100121.66;3512798;39;100089;-84
2021/07/04 02:15:51;;;;;;;7.45;5.20;;;15.90;99.90;;;15.69;100.00;100117.13;3512887;39;103087;-83
2021/07/04 02:18:30;;;;;;;5.97;5.25;;;15.60;99.90;;;15.66;100.00;100122.06;3512247;39;103305;-83
2021/07/04 02:21:09;;;;;;;6.20;5.30;;;16.80;99.90;;;15.61;100.00;100119.09;3513771;39;102805;-83
2021/07/04 02:23:59;;;;;;;4.30;3.92;;;16.20;99.90;;;15.71;100.00;100131.22;3507245;39;100448;-82
2021/07/04 02:26:39;;;;;;;5.45;4.60;;;16.00;99.90;;;15.74;100.00;100128.13;3513166;39;103321;-83
2021/07/04 02:29:15;;;;;;;4.90;4.00;;;15.70;99.90;;;15.90;100.00;100123.47;3511324;39;103185;-82
2021/07/04 02:31:48;;;;;;;7.55;4.15;;;15.70;99.90;;;15.74;100.00;100127.28;3511914;39;102374;-84
2021/07/04 02:34:19;;;;;;;6.97;4.75;;;15.60;99.90;;;15.60;100.00;100123.66;3513050;39;100530;-83
2021/07/04 02:36:59;;;;;;;9.27;5.22;;;15.70;99.90;;;15.55;100.00;100127.97;3530809;39;101023;-84
2021/07/04 02:39:31;;;;;;;7.57;4.68;;;15.70;99.90;;;15.40;100.00;100134.25;3518101;39;101599;-82
2021/07/04 02:42:03;;;;;;;6.55;4.90;;;15.50;99.90;;;15.40;100.00;100136.09;3512079;39;102788;-84
2021/07/04 02:44:35;;;;;;;8.02;4.85;;;15.60;99.90;;;15.29;100.00;100125.84;3512512;39;100172;-83
2021/07/04 02:47:03;;;;;;;7.30;5.43;;;15.50;99.90;;;15.26;100.00;100129.75;3511386;39;102641;-83
2021/07/04 02:49:31;;;;;;;5.05;4.43;;;15.50;99.90;;;15.24;100.00;100139.88;3513964;39;100685;-82
2021/07/04 02:52:01;;;;;;;7.30;4.70;;;15.70;99.90;;;15.12;100.00;100136.00;3511542;39;102702;-83
2021/07/04 02:54:28;;;;;;;7.97;5.73;;;15.30;99.90;;;15.07;100.00;100143.84;3512786;39;100622;-81
2021/07/04 02:57:19;;;;;;;7.20;5.28;;;15.30;99.90;;;15.05;100.00;100143.22;3523264;39;101550;-82
2021/07/04 02:59:47;;;;;;;6.90;4.95;;;15.20;99.90;;;15.02;100.00;100141.72;3504687;39;102043;-82
2021/07/04 03:02:17;;;;;;;7.78;5.05;;;16.20;99.90;;;14.93;100.00;100142.03;3503601;39;101138;-84
2021/07/04 03:04:49;;;;;;;6.77;5.37;;;15.00;99.90;;;14.90;100.00;100137.84;3506071;39;101331;-82
2021/07/04 03:07:18;;;;;;;7.03;5.90;;;16.10;99.90;;;14.87;100.00;100140.09;3505487;39;102180;-84
2021/07/04 03:09:45;;;;;;;5.90;5.03;;;14.90;99.90;;;14.83;100.00;100147.72;3505419;39;103711;-83
2021/07/04 03:12:19;;;;;;;7.00;6.30;;;15.50;99.90;;;14.90;100.00;100145.09;3505821;39;101382;-84
2021/07/04 03:14:46;;;;;;;8.93;5.03;;;14.80;99.90;;;14.93;100.00;100145.56;3521315;39;99242;-85
2021/07/04 03:17:15;;;;;;;5.73;5.13;;;14.80;99.90;;;14.99;100.00;100150.19;3511985;39;101860;-82
2021/07/04 03:19:43;;;;;;;9.30;4.63;;;15.40;99.90;;;14.92;100.00;100145.75;3504787;39;102743;-82
2021/07/04 03:22:11;;;;;;;6.00;4.97;;;14.80;99.90;;;14.92;100.00;100151.13;3501903;39;102886;-82
2021/07/04 03:24:40;;;;;;;7.80;5.87;;;14.60;99.90;;;14.87;100.00;100154.38;3504886;39;100507;-84
2021/07/04 03:27:08;;;;;;;5.90;5.30;;;14.60;99.90;;;14.78;100.00;100158.22;3505306;39;101655;-83
2021/07/04 03:29:38;;;;;;;6.93;5.47;;;15.60;99.90;;;14.87;100.00;100164.31;3503454;39;100355;-83
2021/07/04 03:32:07;;;;;;;6.67;5.90;;;15.80;99.90;;;14.78;100.00;100165.47;3504008;39;102884;-82
2021/07/04 03:34:36;;;;;;;7.57;5.50;;;14.60;99.90;;;14.80;100.00;100166.13;3503194;39;100350;-82
2021/07/04 03:37:04;;;;;;;9.53;6.53;;;15.40;99.90;;;14.74;100.00;100167.69;3503926;39;102772;-83
2021/07/04 03:39:33;;;;;;;9.07;5.90;;;14.50;99.90;;;14.78;100.00;100169.00;3505673;39;102725;-82
2021/07/04 03:42:01;;;;;;;7.70;6.10;;;14.50;99.90;;;14.79;100.00;100165.28;3503581;39;102002;-83
2021/07/04 03:44:31;;;;;;;7.23;5.63;;;15.10;99.90;;;14.95;100.00;100167.78;3505158;39;100126;-84
2021/07/04 03:46:59;;;;;;;7.57;5.90;;;14.50;99.90;;;15.20;100.00;100168.25;3472038;40;100991;-83
2021/07/04 03:49:27;;;;;;;8.73;6.17;;;13.30;99.90;;;15.29;100.00;100164.41;3506748;39;102693;-84
2021/07/04 03:52:05;;;;;;;7.93;5.73;;;14.50;99.90;;;15.39;100.00;100156.00;3472937;39;100065;-84
2021/07/04 03:54:34;;;;;;;8.67;5.97;;;14.70;99.90;;;15.28;100.00;100153.81;3495669;40;100556;-84
2021/07/04 03:57:21;;;;;;;8.47;5.57;;;14.60;99.90;;;15.58;100.00;100143.78;3495714;40;101701;-84
2021/07/04 03:59:50;;;;;;;7.10;5.87;;;14.70;99.90;;;15.57;100.00;100129.47;3494039;40;101777;-83
2021/07/04 04:02:20;;;;;;;7.17;6.40;;;14.70;99.90;;;15.78;100.00;100121.31;3497633;40;101636;-83
2021/07/04 04:04:47;;;;;;;8.97;6.93;;;14.80;99.90;;;15.62;100.00;100115.38;3496096;40;100208;-83
2021/07/04 04:07:15;;;;;;;5.83;5.03;;;15.40;99.90;;;15.85;100.00;100110.56;3494340;40;103227;-82
2021/07/04 04:09:43;;;;;;;8.60;6.20;;;14.90;99.90;;;16.01;100.00;100107.56;3496142;40;103065;-82
2021/07/04 04:12:12;;;;;;;7.50;5.77;;;14.90;99.90;;;16.22;100.00;100101.25;3496074;40;102531;-83
2021/07/04 04:14:39;;;;;;;7.05;5.15;;;15.00;99.90;;;16.49;100.00;100094.97;3468997;40;100279;-82
2021/07/04 04:17:10;;;;;;;9.37;6.07;;;15.90;99.90;;;16.52;100.00;100089.16;3503503;39;102996;-83
2021/07/04 04:19:42;;;;;;;6.80;6.10;;;15.20;99.90;;;16.79;100.00;100081.19;3471174;40;100900;-82
2021/07/04 04:22:09;;;;;;;8.80;6.27;;;15.30;99.90;;;16.74;100.00;100070.97;3502943;39;102532;-83
2021/07/04 04:24:45;;;;;;;10.23;6.13;;;15.30;99.90;;;16.81;100.00;100065.63;3510756;39;99952;-84
2021/07/04 04:27:12;;;;;;;6.35;5.57;;;16.00;99.90;;;16.41;100.00;100062.75;3470891;40;101282;-86
2021/07/04 04:29:40;;;;;;;6.90;5.47;;;15.60;99.90;;;16.30;100.00;100070.56;3470015;40;101304;-82
2021/07/04 04:32:09;;;;;;;7.10;5.90;;;15.70;99.90;;;16.27;100.00;100066.41;3503587;39;102597;-84
2021/07/04 04:34:36;;;;;;;5.03;4.53;;;15.70;99.90;;;16.74;100.00;100073.69;3504080;39;100173;-84
2021/07/04 04:37:06;;;;;;;6.75;5.90;;;16.70;99.90;;;17.22;100.00;100069.00;3503740;39;103023;-83
2021/07/04 04:39:34;;;;;;;6.93;5.38;;;16.00;99.90;;;17.38;100.00;100064.22;3470703;40;100931;-84
2021/07/04 04:42:02;;;;;;;6.57;5.32;;;16.20;99.90;;;17.63;100.00;100053.63;3472128;40;100148;-84
2021/07/04 04:44:28;;;;;;;7.13;5.25;;;16.10;99.90;;;17.86;100.00;100054.88;3469992;40;99977;-82
2021/07/04 04:46:56;;;;;;;5.85;4.78;;;17.30;99.90;;;18.38;100.00;100053.06;3503564;39;102993;-83
2021/07/04 04:49:23;;;;;;;5.00;4.53;;;16.40;99.90;;;18.51;100.00;100057.59;3502848;39;103149;-83
2021/07/04 04:51:50;;;;;;;9.50;4.95;;;16.60;99.90;;;18.84;100.00;100052.03;3469771;40;100229;-82
2021/07/04 04:54:18;;;;;;;5.25;4.53;;;16.80;99.90;;;18.66;100.00;100041.91;3470343;40;100116;-83
2021/07/04 04:56:46;;;;;;;5.15;4.65;;;17.00;99.90;;;18.78;100.00;100045.59;3470317;40;100899;-84
2021/07/04 04:59:13;;;;;;;6.75;4.82;;;17.30;99.90;;;19.00;100.00;100037.97;3500862;39;103163;-82
2021/07/04 05:01:40;;;;;;;5.22;4.38;;;17.40;99.90;;;18.95;100.00;100040.47;3472201;39;100503;-82
2021/07/04 05:04:08;;;;;;;5.45;3.95;;;17.60;99.90;;;19.14;100.00;100044.13;3519272;39;99559;-83
2021/07/04 05:06:36;;;;;;;3.60;3.28;;;17.80;99.90;;;19.36;100.00;100046.25;3506900;39;102081;-83
2021/07/04 05:09:04;;;;;;;5.70;4.47;;;17.90;99.90;;;19.18;100.00;100038.00;3468319;39;101405;-82
2021/07/04 05:11:32;;;;;;;5.53;3.47;;;18.10;99.90;;;19.54;100.00;100037.34;3468724;40;100537;-82
2021/07/04 05:14:00;;;;;;;6.05;4.13;;;18.30;99.90;;;19.38;100.00;100040.59;3469504;40;100205;-84
2021/07/04 05:16:27;;;;;;;4.88;3.85;;;18.50;99.90;;;19.58;100.00;100037.72;3504322;39;101885;-83
2021/07/04 05:18:54;;;;;;;3.83;3.40;;;18.60;99.90;;;19.41;100.00;100048.25;3470280;40;101484;-82
2021/07/04 05:21:21;;;;;;;6.30;4.07;;;18.80;99.90;;;19.77;100.00;100036.72;3502432;39;101949;-85
2021/07/04 05:23:48;;;;;;;4.70;3.38;;;18.90;99.90;;;19.82;100.00;100036.03;3504605;39;100389;-84
2021/07/04 05:26:18;;;;;;;3.95;3.35;;;19.00;99.90;;;19.99;100.00;100045.28;3471038;40;100152;-84
2021/07/04 05:28:46;;;;;;;4.90;3.67;;;19.20;99.90;;;19.77;100.00;100041.31;3502546;39;102229;-82
2021/07/04 05:31:14;;;;;;;4.57;3.33;;;19.30;99.90;;;19.87;100.00;100044.34;3502395;39;101734;-83
2021/07/04 05:33:41;;;;;;;3.47;2.83;;;19.50;99.90;;;20.19;100.00;100029.56;3509540;39;100231;-83
2021/07/04 05:36:08;;;;;;;3.90;3.15;;;19.60;99.90;;;20.64;100.00;100032.81;3471785;39;100250;-87
2021/07/04 05:38:37;;;;;;;3.08;2.75;;;19.70;99.90;;;20.95;100.00;100034.44;3468663;40;101071;-84
2021/07/04 05:41:04;;;;;;;4.50;3.20;;;19.90;99.90;;;20.78;100.00;100036.97;3467675;40;100761;-81
2021/07/04 05:43:32;;;;;;;4.10;3.20;;;20.10;99.90;;;20.27;100.00;100037.44;3468122;40;100110;-84
2021/07/04 05:46:01;;;;;;;6.18;3.25;;;20.20;99.90;;;20.49;100.00;100024.22;3469707;40;101066;-82
2021/07/04 05:48:29;;;;;;;4.53;2.63;;;21.50;99.90;;;20.84;100.00;100027.09;3465257;39;101225;-82
2021/07/04 05:50:58;;;;;;;3.40;3.10;;;20.40;99.90;;;21.07;100.00;100027.16;3510270;39;100798;-84
2021/07/04 05:53:25;;;;;;;4.18;3.13;;;20.60;99.90;;;21.15;100.00;100024.09;3515199;39;100196;-83
2021/07/04 05:55:52;;;;;;;3.42;3.08;;;21.30;99.90;;;20.77;100.00;100018.22;3519571;39;100734;-83
2021/07/04 05:58:20;;;;;;;5.03;3.63;;;20.90;99.90;;;21.35;100.00;100018.38;3493583;39;101106;-82
2021/07/04 06:00:51;;;;;;;3.92;2.78;;;21.00;99.90;;;21.22;100.00;100018.59;3517005;39;100344;-82
2021/07/04 06:03:20;;;;;;;3.63;3.03;;;21.20;99.90;;;21.56;100.00;100018.84;3507478;39;100226;-81
2021/07/04 06:05:47;;;;;;;3.30;2.63;;;21.30;99.90;;;21.28;100.00;100009.47;3534801;39;101251;-83
2021/07/04 06:08:14;;;;;;;3.10;2.75;;;21.70;99.90;;;21.53;100.00;100006.53;3526703;39;101271;-83
2021/07/04 06:10:44;;;;;;;3.47;2.30;;;21.50;99.90;;;21.63;100.00;100014.97;3518928;39;100633;-82
2021/07/04 06:13:12;;;;;;;2.55;2.00;;;20.70;99.50;;;21.84;100.00;100014.34;3519322;39;100208;-83
2021/07/04 06:15:39;;;;;;;3.45;2.17;;;21.80;99.50;;;21.93;100.00;100008.53;3517141;39;101229;-83
2021/07/04 06:18:06;;;;;;;4.18;2.05;;;21.90;98.70;;;22.09;100.00;100011.38;3516847;39;101456;-82
2021/07/04 06:20:35;;;;;;;2.47;2.28;;;22.10;98.10;;;22.65;100.00;100015.22;3506906;39;102434;-83
2021/07/04 06:23:02;;;;;;;2.33;2.10;;;22.20;97.60;;;22.43;100.00;100008.81;3518053;39;100096;-81
2021/07/04 06:25:29;;;;;;;2.30;2.10;;;22.70;97.20;;;22.67;100.00;100007.63;3516690;39;101363;-84
2021/07/04 06:27:56;;;;;;;2.75;2.38;;;23.20;96.30;;;22.55;100.00;100004.97;3518941;39;101360;-84
2021/07/04 06:30:23;;;;;;;2.55;2.08;;;23.00;95.10;;;22.71;100.00;100002.53;3517107;39;100583;-83
2021/07/04 06:32:51;;;;;;;2.15;1.95;;;23.10;93.90;;;22.73;100.00;99998.50;3516904;39;100213;-84
2021/07/04 06:35:18;;;;;;;2.60;2.40;;;23.20;93.10;;;22.60;100.00;99997.97;3511285;39;103123;-84
2021/07/04 06:37:47;;;;;;;7.85;2.30;;;23.30;92.60;;;22.76;100.00;100006.19;3506285;39;103586;-84
2021/07/04 06:40:15;;;;;;;3.20;2.50;;;23.40;92.30;;;22.63;100.00;99998.28;3516982;39;100791;-83
2021/07/04 06:42:42;;;;;;;11.95;2.42;;;23.50;92.10;;;23.32;100.00;99996.28;3508100;39;100287;-84
2021/07/04 06:45:11;;;;;;;3.47;1.90;;;23.60;91.80;;;23.18;100.00;99995.75;3533794;39;101002;-82
2021/07/04 06:47:40;;;;;;;4.53;2.17;;;24.50;91.70;;;23.92;100.00;99987.34;3517388;39;100920;-83
2021/07/04 06:50:09;;;;;;;2.03;1.90;;;24.00;91.00;;;23.76;100.00;99993.69;3518005;39;100508;-85
2021/07/04 06:52:37;;;;;;;1.98;1.77;;;24.30;90.60;;;23.74;100.00;99990.38;3515618;39;100263;-82
2021/07/04 06:55:06;;;;;;;3.50;1.60;;;24.60;88.00;;;24.00;100.00;99993.19;3515354;39;101342;-83
2021/07/04 06:57:33;;;;;;;2.35;1.80;;;24.80;85.70;;;24.56;100.00;99991.19;3515590;39;100901;-82
2021/07/04 07:00:05;;;;;;;1.88;1.77;;;25.00;84.90;;;24.52;100.00;99978.28;3514827;39;100641;-84
2021/07/04 07:02:32;;;;;;;3.45;2.60;;;25.20;83.90;;;24.62;100.00;99978.38;3515368;39;100028;-83
2021/07/04 07:04:59;;;;;;;2.17;1.65;;;25.50;82.60;;;23.97;100.00;99981.97;3514665;39;100237;-85
2021/07/04 07:07:26;;;;;;;2.15;1.83;;;25.60;80.40;;;23.73;100.00;99986.00;3506896;39;103343;-84
2021/07/04 07:09:53;;;;;;;7.10;1.75;;;25.50;78.60;;;23.63;100.00;99984.75;3516067;39;100524;-83
2021/07/04 07:12:22;;;;;;;2.13;2.00;;;25.80;77.10;;;23.66;100.00;99983.44;3516106;39;99960;-84
2021/07/04 07:14:49;;;;;;;2.35;2.03;;;25.70;77.00;;;24.10;100.00;99984.31;3516828;39;101397;-82
2021/07/04 07:17:16;;;;;;;5.20;1.77;;;26.40;77.30;;;24.23;100.00;99981.22;3515849;39;100946;-82
2021/07/04 07:19:43;;;;;;;2.20;2.00;;;26.40;78.20;;;24.51;100.00;99982.09;3520889;39;102303;-82
2021/07/04 07:22:17;;;;;;;2.30;2.10;;;25.80;78.00;;;24.25;100.00;99980.97;3508473;39;100126;-83
2021/07/04 07:24:44;;;;;;;1.95;1.65;;;26.70;78.40;;;24.02;100.00;99971.09;3514964;39;101090;-82
2021/07/04 07:27:12;;;;;;;3.10;2.15;;;26.40;76.80;;;23.04;100.00;99975.31;3504287;39;102832;-82
2021/07/04 07:29:40;;;;;;;2.55;2.03;;;26.20;74.60;;;24.69;100.00;99970.81;3505479;39;102092;-82
2021/07/04 07:32:10;;;;;;;1.92;1.73;;;26.20;73.80;;;24.96;100.00;99974.38;3503107;39;100641;-81
2021/07/04 07:34:37;;;;;;;1.95;1.70;;;26.40;73.60;;;25.18;100.00;99968.81;3515082;39;101073;-83
2021/07/04 07:37:04;;;;;;;2.03;1.92;;;26.50;72.80;;;25.66;100.00;99961.50;3515114;39;100878;-82
2021/07/04 07:39:33;;;;;;;1.73;1.60;;;26.70;72.30;;;25.60;100.00;99962.53;3514338;39;100445;-82
2021/07/04 07:42:00;;;;;;;2.65;1.58;;;27.00;72.10;;;25.95;100.00;99960.03;3515264;39;100193;-81
2021/07/04 07:44:27;;;;;;;2.17;1.90;;;27.70;71.90;;;26.40;100.00;99959.41;3514809;39;102660;-84
2021/07/04 07:47:05;;;;;;;2.85;2.38;;;27.60;71.30;;;26.58;100.00;99954.53;3515168;39;101541;-81
2021/07/04 07:49:33;;;;;;;2.08;1.90;;;27.60;70.70;;;25.31;100.00;99957.44;3528218;39;100352;-82
2021/07/04 07:52:00;;;;;;;2.80;1.63;;;27.70;68.80;;;25.76;100.00;99956.09;3522702;39;100062;-83
2021/07/04 07:54:35;;;;;;;1.42;1.23;;;28.10;66.70;;;26.97;100.00;99952.13;3515710;39;100958;-83
2021/07/04 07:57:03;;;;;;;2.30;1.48;;;28.30;65.50;;;26.64;100.00;99948.75;3515523;39;100668;-83
2021/07/04 07:59:31;;;;;;;3.33;1.38;;;28.50;64.00;;;25.59;100.00;99945.25;3515245;39;100795;-83
2021/07/04 08:01:58;;;;;;;2.63;1.73;;;28.70;59.90;;;25.30;100.00;99941.25;3516570;39;100118;-83
2021/07/04 08:04:27;;;;;;;2.35;1.75;;;28.50;58.80;;;25.02;100.00;99939.66;3516799;39;101109;-82
2021/07/04 08:06:54;;;;;;;1.95;1.60;;;28.90;58.00;;;24.65;100.00;99945.88;3514838;39;101459;-82
2021/07/04 08:09:21;;;;;;;2.63;1.55;;;29.00;56.00;;;26.44;100.00;99935.00;3505900;39;102203;-84
2021/07/04 08:11:50;;;;;;;4.25;1.65;;;29.00;56.60;;;27.16;100.00;99932.09;3504744;39;100177;-82
2021/07/04 08:14:19;;;;;;;1.95;1.30;;;29.10;56.90;;;27.53;100.00;99930.94;3504997;39;102852;-84
2021/07/04 08:16:51;;;;;;;2.50;1.75;;;29.40;56.60;;;26.11;100.00;99933.50;3506370;39;101738;-84
2021/07/04 08:19:18;;;;;;;1.73;1.20;;;29.60;54.20;;;25.81;100.00;99928.72;3514503;39;100319;-82
2021/07/04 08:21:46;;;;;;;1.30;1.20;;;29.70;53.20;;;26.90;100.00;99929.59;3514825;39;99987;-83
2021/07/04 08:24:13;;;;;;;1.13;1.02;;;29.70;53.30;;;26.42;100.00;99921.56;3515909;39;101366;-84
2021/07/04 08:26:40;;;;;;;1.40;1.30;;;29.80;50.70;;;25.46;100.00;99918.38;3515069;39;100899;-83
2021/07/04 08:29:07;;;;;;;1.38;1.27;;;29.70;49.70;;;26.10;100.00;99909.91;3515121;39;100480;-84
2021/07/04 08:31:34;;;;;;;2.80;1.67;;;30.10;50.00;;;27.84;100.00;99898.69;3515558;39;100089;-83
2021/07/04 08:34:01;;;;;;;1.58;1.25;;;29.90;50.60;;;26.74;100.00;99906.78;3525904;39;101089;-83
2021/07/04 08:36:32;;;;;;;1.35;1.25;;;30.00;49.90;;;27.36;100.00;99902.94;3504700;39;103338;-82
2021/07/04 08:39:01;;;;;;;6.05;1.52;;;30.30;49.60;;;28.18;100.00;99896.94;3513986;39;100312;-83
2021/07/04 08:41:28;;;;;;;1.02;0.93;;;30.40;48.90;;;27.31;100.00;99897.47;3505500;39;100283;-83
2021/07/04 08:43:55;;;;;;;1.95;1.38;;;30.70;48.20;;;27.71;100.00;99899.28;3514322;39;100931;-83
2021/07/04 08:46:22;;;;;;;1.42;1.17;;;30.80;47.60;;;29.04;100.00;99897.44;3513656;39;101377;-85
2021/07/04 08:48:50;;;;;;;1.55;1.27;;;31.10;47.70;;;28.07;100.00;99902.72;3515278;39;100345;-81
2021/07/04 08:51:18;;;;;;;1.27;1.17;;;31.40;47.00;;;28.38;100.00;99892.41;3514553;39;100372;-83
2021/07/04 08:53:45;;;;;;;1.75;1.23;;;31.60;46.30;;;28.10;100.00;99882.91;3504665;39;103844;-82
2021/07/04 08:56:14;;;;;;;1.58;1.35;;;31.80;45.90;;;28.46;100.00;99887.09;3514237;39;100970;-81
2021/07/04 08:58:41;;;;;;;2.75;1.60;;;31.80;45.40;;;28.28;100.00;99885.03;3513990;39;100477;-82
2021/07/04 09:01:15;;;;;;;1.40;1.10;;;31.90;45.10;;;28.44;100.00;99883.00;3503553;39;100060;-80
2021/07/04 09:03:46;;;;;;;1.25;1.08;;;31.90;44.90;;;28.09;100.00;99879.31;3513402;39;100795;-82
2021/07/04 09:06:14;;;;;;;1.45;1.13;;;32.00;44.90;;;27.04;100.00;99881.28;3514611;39;101044;-83
2021/07/04 09:08:42;;;;;;;1.33;1.17;;;32.00;44.10;;;25.69;100.00;99873.31;3515253;39;100665;-84
2021/07/04 09:11:19;;;;;;;1.42;1.10;;;31.80;41.60;;;25.44;100.00;99873.97;3524056;39;100215;-83
2021/07/04 09:13:48;;;;;;;1.20;1.08;;;31.60;41.90;;;25.39;100.00;99869.28;3529496;39;100217;-83
2021/07/04 09:16:20;;;;;;;2.35;1.23;;;31.20;41.80;;;25.98;100.00;99865.44;3515604;39;101209;-83
2021/07/04 09:19:11;;;;;;;1.92;1.30;;;30.90;43.00;;;25.24;100.00;99866.44;3504727;39;102465;-81
2021/07/04 09:21:38;;;;;;;1.63;1.40;;;30.60;43.40;;;25.19;100.00;99869.16;3515599;39;100180;-84
2021/07/04 09:24:23;;;;;;;1.25;1.15;;;30.20;43.60;;;25.96;100.00;99865.75;3504214;39;103071;-83
2021/07/04 09:26:52;;;;;;;1.33;1.23;;;29.80;44.30;;;26.09;100.00;99861.66;3511740;39;100872;-83
2021/07/04 09:29:42;;;;;;;1.73;1.10;;;29.60;45.20;;;27.16;100.00;99860.69;3515982;39;100391;-82
2021/07/04 09:32:16;;;;;;;4.18;1.48;;;29.50;45.80;;;28.07;100.00;99859.53;3515294;39;100266;-81
2021/07/04 09:34:58;;;;;;;1.85;1.20;;;29.60;46.20;;;28.88;100.00;99856.25;3504703;39;103378;-81
2021/07/04 09:37:30;;;;;;;1.88;1.27;;;29.80;46.10;;;29.09;100.00;99859.63;3514270;39;101434;-82
2021/07/04 09:40:17;;;;;;;1.13;1.00;;;30.10;46.00;;;29.23;100.00;99846.81;3504868;39;102835;-82
2021/07/04 09:42:59;;;;;;;2.30;1.10;;;30.40;45.60;;;29.31;100.00;99851.69;3515163;39;100013;-82
2021/07/04 09:45:39;;;;;;;1.60;1.15;;;30.80;45.10;;;27.86;100.00;99855.25;3514848;39;101324;-83
2021/07/04 09:48:07;;;;;;;1.98;1.13;;;31.50;44.40;;;28.24;100.00;99846.25;3517005;39;100998;-83
2021/07/04 09:50:40;;;;;;;1.92;1.48;;;32.20;44.00;;;28.14;100.00;99845.47;3516464;39;100852;-84
2021/07/04 09:53:08;;;;;;;3.38;1.45;;;31.90;43.30;;;26.03;100.00;99846.28;3517218;39;99982;-82
2021/07/04 09:55:35;;;;;;;1.52;1.17;;;32.20;39.40;;;26.29;100.00;99844.47;3508214;39;103346;-83
2021/07/04 09:58:06;;;;;;;1.75;1.40;;;31.80;38.80;;;26.52;100.00;99843.09;3522888;39;100380;-82
2021/07/04 10:00:37;;;;;;;1.10;0.95;;;31.90;38.80;;;28.26;100.00;99840.47;3514551;39;100691;-82
2021/07/04 10:03:17;;;;;;;1.45;1.27;;;31.90;39.80;;;28.30;100.00;99833.31;3507264;39;100349;-84
2021/07/04 10:06:00;;;;;;;1.55;1.35;;;32.00;39.90;;;27.23;100.00;99837.56;3507528;39;102686;-84
2021/07/04 10:08:30;;;;;;;1.20;1.10;;;32.10;38.30;;;28.88;100.00;99837.00;3515740;39;101234;-82
2021/07/04 10:11:00;;;;;;;1.33;1.15;;;32.30;39.30;;;30.05;100.00;99827.38;3516765;39;100321;-82
2021/07/04 10:13:32;;;;;;;1.17;1.00;;;32.50;39.70;;;29.43;100.00;99828.44;3516757;39;100303;-83